createdAt,value
2018-10-11T00:01:27.723Z,100853.36
2018-10-11T00:04:01.546Z,100855.83
2018-10-11T00:06:35.511Z,100849.49
2018-10-11T00:09:10.764Z,100849.07
2018-10-11T00:11:44.677Z,100854.48
2018-10-11T00:14:18.577Z,100849.70
2018-10-11T00:16:52.435Z,100859.69
2018-10-11T00:19:26.248Z,100843.63
2018-10-11T00:22:00.109Z,100845.06
2018-10-11T00:24:33.913Z,100845.56
2018-10-11T00:27:07.853Z,100838.48
2018-10-11T00:29:41.763Z,100836.00
2018-10-11T00:32:15.679Z,100835.33
2018-10-11T00:34:49.499Z,100839.66
2018-10-11T00:37:23.399Z,100835.19
2018-10-11T00:39:57.260Z,100833.52
2018-10-11T00:42:31.142Z,100828.98
2018-10-11T00:45:05.061Z,100837.62
2018-10-11T00:47:39.008Z,100839.28
2018-10-11T00:50:12.833Z,100839.28
2018-10-11T00:52:46.747Z,100839.28
2018-10-11T00:55:20.579Z,100837.92
2018-10-11T00:57:54.521Z,100836.41
2018-10-11T01:00:28.354Z,100828.41
2018-10-11T01:03:02.196Z,100821.22
2018-10-11T01:05:36.005Z,100816.52
2018-10-11T01:08:09.996Z,100817.35
2018-10-11T01:10:43.792Z,100810.37
2018-10-11T01:13:17.777Z,100813.97
2018-10-11T01:15:51.645Z,100804.91
2018-10-11T01:18:25.613Z,100801.30
2018-10-11T01:20:59.435Z,100804.38
2018-10-11T01:23:33.291Z,100793.47
2018-10-11T01:26:07.181Z,100795.91
2018-10-11T01:28:41.093Z,100803.05
2018-10-11T01:31:22.319Z,100798.09
2018-10-11T01:33:56.589Z,100800.29
2018-10-11T01:36:30.584Z,100800.47
2018-10-11T01:39:05.258Z,100789.72
2018-10-11T01:41:39.239Z,100799.04
2018-10-11T01:44:13.217Z,100793.17
2018-10-11T01:46:47.148Z,100789.31
2018-10-11T01:49:21.219Z,100782.00
2018-10-11T01:51:55.219Z,100779.31
2018-10-11T01:54:29.223Z,100781.88
2018-10-11T01:57:03.296Z,100771.83
2018-10-11T01:59:38.984Z,100766.38
2018-10-11T02:02:12.938Z,100757.45
2018-10-11T02:04:46.902Z,100757.45
2018-10-11T02:07:20.878Z,100745.64
2018-10-11T02:09:54.858Z,100757.98
2018-10-11T02:12:28.975Z,100765.98
2018-10-11T02:15:02.945Z,100756.97
2018-10-11T02:17:36.890Z,100752.73
2018-10-11T02:20:10.975Z,100747.04
2018-10-11T02:22:44.927Z,100740.10
2018-10-11T02:25:18.918Z,100731.09
2018-10-11T02:27:52.863Z,100728.25
2018-10-11T02:30:26.902Z,100732.88
2018-10-11T02:33:01.033Z,100725.12
2018-10-11T02:35:35.087Z,100723.00
2018-10-11T02:38:09.105Z,100724.73
2018-10-11T02:40:43.050Z,100720.02
2018-10-11T02:43:16.982Z,100709.91
2018-10-11T02:45:50.968Z,100701.52
2018-10-11T02:48:24.894Z,100700.67
2018-10-11T02:50:59.159Z,100700.17
2018-10-11T02:53:33.137Z,100706.94
2018-10-11T02:56:07.404Z,100705.77
2018-10-11T02:58:52.408Z,100703.09
2018-10-11T03:01:26.469Z,100708.23
2018-10-11T03:04:04.517Z,100711.00
2018-10-11T03:06:39.813Z,100719.52
2018-10-11T03:09:13.989Z,100709.95
2018-10-11T03:11:48.267Z,100703.47
2018-10-11T03:14:22.276Z,100704.30
2018-10-11T03:16:56.306Z,100707.11
2018-10-11T03:19:30.279Z,100701.80
2018-10-11T03:22:04.385Z,100696.38
2018-10-11T03:24:38.422Z,100700.12
2018-10-11T03:27:12.534Z,100700.17
2018-10-11T03:29:46.547Z,100697.14
2018-10-11T03:32:20.607Z,100691.62
2018-10-11T03:34:54.595Z,100681.98
2018-10-11T03:37:28.692Z,100683.42
2018-10-11T03:40:02.625Z,100672.70
2018-10-11T03:42:36.729Z,100674.41
2018-10-11T03:45:11.027Z,100669.61
2018-10-11T03:47:45.141Z,100668.55
2018-10-11T03:50:19.105Z,100675.36
2018-10-11T03:52:53.198Z,100678.20
2018-10-11T03:55:27.626Z,100681.11
2018-10-11T03:58:01.595Z,100680.55
2018-10-11T04:00:35.617Z,100671.99
2018-10-11T04:03:09.630Z,100676.46
2018-10-11T04:05:43.595Z,100675.62
2018-10-11T04:08:17.560Z,100678.31
2018-10-11T04:10:52.538Z,100677.33
2018-10-11T04:13:26.615Z,100684.52
2018-10-11T04:16:00.959Z,100678.61
2018-10-11T04:18:39.719Z,100667.91
2018-10-11T04:21:13.636Z,100662.23
2018-10-11T04:23:47.604Z,100657.46
2018-10-11T04:26:21.680Z,100660.87
2018-10-11T04:28:55.639Z,100664.13
2018-10-11T04:31:29.612Z,100652.69
2018-10-11T04:34:03.650Z,100655.57
2018-10-11T04:36:37.591Z,100643.80
2018-10-11T04:39:11.559Z,100655.48
2018-10-11T04:41:45.526Z,100653.19
2018-10-11T04:44:19.464Z,100655.11
2018-10-11T04:46:53.489Z,100667.87
2018-10-11T04:49:27.529Z,100673.02
2018-10-11T04:52:01.512Z,100677.85
2018-10-11T04:54:35.460Z,100677.73
2018-10-11T04:57:09.445Z,100679.70
2018-10-11T04:59:43.434Z,100679.34
2018-10-11T05:02:17.393Z,100680.66
2018-10-11T05:04:51.493Z,100676.70
2018-10-11T05:07:25.537Z,100669.94
2018-10-11T05:09:59.548Z,100664.52
2018-10-11T05:12:33.568Z,100671.09
2018-10-11T05:15:07.857Z,100666.02
2018-10-11T05:17:42.920Z,100667.93
2018-10-11T05:20:17.022Z,100672.66
2018-10-11T05:22:51.044Z,100663.38
2018-10-11T05:25:25.193Z,100659.56
2018-10-11T05:27:59.205Z,100670.09
2018-10-11T05:30:33.166Z,100679.47
2018-10-11T05:33:07.329Z,100682.38
2018-10-11T05:35:41.274Z,100687.45
2018-10-11T05:38:15.379Z,100690.86
2018-10-11T05:40:49.368Z,100692.56
2018-10-11T05:43:23.566Z,100692.04
2018-10-11T05:45:59.252Z,100685.72
2018-10-11T05:48:34.478Z,100685.16
2018-10-11T05:51:08.531Z,100680.47
2018-10-11T05:53:42.604Z,100676.23
2018-10-11T05:56:17.596Z,100679.00
2018-10-11T05:58:52.382Z,100683.69
2018-10-11T06:01:26.567Z,100687.89
2018-10-11T06:04:00.661Z,100690.11
2018-10-11T06:06:34.678Z,100690.58
2018-10-11T06:09:10.300Z,100681.53
2018-10-11T06:11:45.538Z,100677.07
2018-10-11T06:14:19.603Z,100661.44
2018-10-11T06:16:53.624Z,100652.93
2018-10-11T06:19:27.805Z,100644.78
2018-10-11T06:22:01.848Z,100644.48
2018-10-11T06:24:36.319Z,100650.99
2018-10-11T06:27:10.312Z,100654.37
2018-10-11T06:29:44.355Z,100646.40
2018-10-11T06:32:18.504Z,100655.60
2018-10-11T06:34:52.617Z,100661.20
2018-10-11T06:37:27.107Z,100664.49
2018-10-11T06:40:02.196Z,100668.03
2018-10-11T06:42:36.250Z,100660.70
2018-10-11T06:45:11.351Z,100658.23
2018-10-11T06:47:47.992Z,100654.61
2018-10-11T06:50:22.143Z,100658.44
2018-10-11T06:52:56.179Z,100659.52
2018-10-11T06:55:30.183Z,100657.42
2018-10-11T06:58:04.237Z,100671.05
2018-10-11T07:00:38.199Z,100684.94
2018-10-11T07:03:12.277Z,100690.86
2018-10-11T07:05:46.276Z,100698.43
2018-10-11T07:08:20.271Z,100699.52
2018-10-11T07:10:54.776Z,100706.44
2018-10-11T07:13:28.689Z,100709.30
2018-10-11T07:16:02.839Z,100711.41
2018-10-11T07:18:36.849Z,100709.56
2018-10-11T07:21:11.114Z,100712.40
2018-10-11T07:23:45.064Z,100705.76
2018-10-11T07:26:19.089Z,100717.86
2018-10-11T07:28:53.082Z,100701.17
2018-10-11T07:31:27.080Z,100696.92
2018-10-11T07:34:01.047Z,100706.09
2018-10-11T07:36:35.010Z,100706.62
2018-10-11T07:39:11.804Z,100706.46
2018-10-11T07:41:45.897Z,100703.70
2018-10-11T07:44:19.838Z,100703.84
2018-10-11T07:46:53.868Z,100709.66
2018-10-11T07:49:27.849Z,100701.67
2018-10-11T07:52:01.793Z,100708.59
2018-10-11T07:54:36.673Z,100717.22
2018-10-11T07:57:10.787Z,100713.86
2018-10-11T07:59:44.740Z,100704.82
2018-10-11T08:02:18.833Z,100696.80
2018-10-11T08:04:52.773Z,100704.06
2018-10-11T08:07:26.849Z,100695.83
2018-10-11T08:10:00.736Z,100688.53
2018-10-11T08:12:34.801Z,100689.82
2018-10-11T08:15:08.739Z,100685.64
2018-10-11T08:17:43.015Z,100696.36
2018-10-11T08:20:16.802Z,100694.45
2018-10-11T08:22:50.786Z,100698.94
2018-10-11T08:25:24.937Z,100703.34
2018-10-11T08:28:00.241Z,100706.91
2018-10-11T08:30:34.267Z,100699.45
2018-10-11T08:33:08.450Z,100711.02
2018-10-11T08:35:42.349Z,100728.28
2018-10-11T08:38:16.690Z,100724.35
2018-10-11T08:40:50.436Z,100716.25
2018-10-11T08:43:24.692Z,100711.41
2018-10-11T08:45:58.622Z,100693.08
2018-10-11T08:48:32.592Z,100695.25
2018-10-11T08:51:06.649Z,100691.17
2018-10-11T08:53:40.783Z,100700.58
2018-10-11T08:56:14.852Z,100697.36
2018-10-11T08:58:48.854Z,100693.96
2018-10-11T09:01:22.808Z,100698.73
2018-10-11T09:03:57.533Z,100693.27
2018-10-11T09:06:31.330Z,100692.66
2018-10-11T09:09:07.759Z,100688.53
2018-10-11T09:11:41.729Z,100684.52
2018-10-11T09:14:15.802Z,100689.93
2018-10-11T09:16:49.776Z,100697.52
2018-10-11T09:19:23.874Z,100692.64
2018-10-11T09:21:57.812Z,100683.11
2018-10-11T09:24:31.921Z,100685.86
2018-10-11T09:27:05.917Z,100674.75
2018-10-11T09:29:39.925Z,100676.69
2018-10-11T09:32:13.852Z,100669.52
2018-10-11T09:34:47.837Z,100677.82
2018-10-11T09:37:21.858Z,100682.80
2018-10-11T09:39:55.913Z,100677.37
2018-10-11T09:42:29.992Z,100672.46
2018-10-11T09:45:04.190Z,100671.05
2018-10-11T09:47:38.140Z,100670.50
2018-10-11T09:50:12.135Z,100667.87
2018-10-11T09:52:46.086Z,100664.75
2018-10-11T09:55:20.148Z,100669.28
2018-10-11T09:57:54.254Z,100668.00
2018-10-11T10:00:33.206Z,100670.36
2018-10-11T10:03:07.205Z,100660.04
2018-10-11T10:05:41.215Z,100657.74
2018-10-11T10:08:15.142Z,100662.95
2018-10-11T10:10:49.095Z,100658.81
2018-10-11T10:13:23.061Z,100660.38
2018-10-11T10:15:57.057Z,100650.69
2018-10-11T10:18:31.019Z,100652.40
2018-10-11T10:21:05.272Z,100649.56
2018-10-11T10:23:39.194Z,100642.66
2018-10-11T10:26:13.197Z,100653.71
2018-10-11T10:28:47.125Z,100648.06
2018-10-11T10:31:21.116Z,100643.44
2018-10-11T10:33:55.071Z,100632.22
2018-10-11T10:36:29.068Z,100624.37
2018-10-11T10:39:03.194Z,100623.25
2018-10-11T10:41:37.153Z,100622.59
2018-10-11T10:44:11.146Z,100622.52
2018-10-11T10:46:45.193Z,100621.56
2018-10-11T10:49:19.184Z,100630.30
2018-10-11T10:51:53.225Z,100627.16
2018-10-11T10:54:34.435Z,100620.37
2018-10-11T10:57:08.441Z,100612.70
2018-10-11T10:59:42.400Z,100612.51
2018-10-11T11:02:16.500Z,100616.59
2018-10-11T11:04:50.469Z,100630.43
2018-10-11T11:07:24.820Z,100626.63
2018-10-11T11:09:58.722Z,100632.65
2018-10-11T11:12:32.797Z,100622.36
2018-10-11T11:15:06.834Z,100624.81
2018-10-11T11:17:40.811Z,100626.20
2018-10-11T11:20:14.893Z,100616.40
2018-10-11T11:22:48.982Z,100611.52
2018-10-11T11:25:23.043Z,100606.30
2018-10-11T11:27:57.025Z,100612.11
2018-10-11T11:30:30.980Z,100599.61
2018-10-11T11:33:04.982Z,100598.81
2018-10-11T11:35:38.929Z,100608.14
2018-10-11T11:38:12.923Z,100621.51
2018-10-11T11:40:46.928Z,100622.80
2018-10-11T11:43:20.914Z,100619.14
2018-10-11T11:45:55.013Z,100613.08
2018-10-11T11:48:29.105Z,100615.83
2018-10-11T11:51:03.059Z,100623.34
2018-10-11T11:53:37.495Z,100630.30
2018-10-11T11:56:11.901Z,100633.95
2018-10-11T11:58:45.904Z,100634.86
2018-10-11T12:01:19.829Z,100636.70
2018-10-11T12:03:53.985Z,100642.20
2018-10-11T12:06:28.075Z,100645.23
2018-10-11T12:09:02.140Z,100644.92
2018-10-11T12:11:36.071Z,100642.02
2018-10-11T12:14:10.363Z,100629.38
2018-10-11T12:16:44.468Z,100638.40
2018-10-11T12:19:18.353Z,100640.55
2018-10-11T12:21:52.286Z,100638.32
2018-10-11T12:24:26.274Z,100637.73
2018-10-11T12:27:00.257Z,100639.66
2018-10-11T12:29:34.214Z,100636.44
2018-10-11T12:32:08.351Z,100643.23
2018-10-11T12:34:42.377Z,100639.81
2018-10-11T12:37:16.351Z,100640.18
2018-10-11T12:39:50.433Z,100636.63
2018-10-11T12:42:24.498Z,100644.70
2018-10-11T12:44:58.470Z,100647.79
2018-10-11T12:47:32.440Z,100644.11
2018-10-11T12:50:07.013Z,100643.27
2018-10-11T12:52:41.279Z,100640.67
2018-10-11T12:55:15.400Z,100637.09
2018-10-11T12:57:49.331Z,100637.30
2018-10-11T13:00:23.355Z,100634.12
2018-10-11T13:02:57.406Z,100632.59
2018-10-11T13:05:31.350Z,100630.92
2018-10-11T13:08:05.332Z,100623.20
2018-10-11T13:10:39.364Z,100620.33
2018-10-11T13:13:13.393Z,100614.41
2018-10-11T13:15:47.548Z,100604.21
2018-10-11T13:18:21.570Z,100610.63
2018-10-11T13:20:55.537Z,100612.66
2018-10-11T13:23:29.471Z,100620.58
2018-10-11T13:26:03.458Z,100621.75
2018-10-11T13:28:37.519Z,100620.45
2018-10-11T13:31:11.490Z,100620.56
2018-10-11T13:33:45.485Z,100621.28
2018-10-11T13:36:19.470Z,100615.69
2018-10-11T13:38:53.436Z,100621.62
2018-10-11T13:41:27.644Z,100623.86
2018-10-11T13:44:01.534Z,100627.08
2018-10-11T13:46:35.612Z,100631.11
2018-10-11T13:49:09.657Z,100631.00
2018-10-11T13:51:43.759Z,100629.23
2018-10-11T13:54:18.843Z,100626.87
2018-10-11T13:56:58.013Z,100631.13
2018-10-11T13:59:26.979Z,100625.76
2018-10-11T14:02:01.048Z,100622.44
2018-10-11T14:04:35.080Z,100616.64
2018-10-11T14:07:09.034Z,100621.27
2018-10-11T14:09:42.994Z,100622.36
2018-10-11T14:12:17.180Z,100611.08
2018-10-11T14:14:51.141Z,100612.16
2018-10-11T14:17:25.143Z,100605.48
2018-10-11T14:19:59.089Z,100597.78
2018-10-11T14:22:33.187Z,100603.23
2018-10-11T14:25:08.031Z,100606.09
2018-10-11T14:27:42.176Z,100596.95
2018-10-11T14:30:16.133Z,100592.34
2018-10-11T14:32:50.165Z,100596.49
2018-10-11T14:35:24.142Z,100600.97
2018-10-11T14:37:58.171Z,100591.73
2018-10-11T14:40:32.129Z,100590.18
2018-10-11T14:43:06.468Z,100590.30
2018-10-11T14:45:40.464Z,100590.06
2018-10-11T14:48:14.645Z,100592.33
2018-10-11T14:50:48.662Z,100589.34
2018-10-11T14:53:22.637Z,100587.66
2018-10-11T14:55:56.588Z,100595.24
2018-10-11T14:58:30.590Z,100590.11
2018-10-11T15:01:04.591Z,100589.66
2018-10-11T15:03:38.559Z,100596.09
2018-10-11T15:06:12.546Z,100593.19
2018-10-11T15:08:46.503Z,100601.53
2018-10-11T15:11:20.554Z,100600.84
2018-10-11T15:13:54.514Z,100603.54
2018-10-11T15:16:28.490Z,100607.93
2018-10-11T15:19:02.552Z,100608.65
2018-10-11T15:21:36.469Z,100611.19
2018-10-11T15:24:10.539Z,100612.11
2018-10-11T15:26:44.554Z,100611.14
2018-10-11T15:29:18.694Z,100611.37
2018-10-11T15:31:52.635Z,100610.64
2018-10-11T15:34:26.621Z,100611.16
2018-10-11T15:37:00.710Z,100608.05
2018-10-11T15:39:34.699Z,100606.93
2018-10-11T15:42:08.717Z,100611.53
2018-10-11T15:44:42.778Z,100614.53
2018-10-11T15:47:16.775Z,100618.52
2018-10-11T15:49:50.787Z,100626.19
2018-10-11T15:52:24.793Z,100618.50
2018-10-11T15:54:58.860Z,100627.44
2018-10-11T15:57:32.804Z,100629.64
2018-10-11T16:00:07.103Z,100625.36
2018-10-11T16:02:41.047Z,100626.32
2018-10-11T16:05:15.075Z,100633.58
2018-10-11T16:07:49.012Z,100633.02
2018-10-11T16:10:23.046Z,100631.91
2018-10-11T16:12:57.034Z,100636.23
2018-10-11T16:15:31.127Z,100631.80
2018-10-11T16:18:05.044Z,100628.80
2018-10-11T16:20:39.223Z,100640.54
2018-10-11T16:23:13.263Z,100637.27
2018-10-11T16:25:47.416Z,100641.94
2018-10-11T16:28:21.406Z,100638.73
2018-10-11T16:30:55.443Z,100639.94
2018-10-11T16:33:29.424Z,100647.41
2018-10-11T16:36:03.433Z,100643.00
2018-10-11T16:38:37.503Z,100647.28
2018-10-11T16:41:11.645Z,100647.11
2018-10-11T16:43:45.597Z,100652.09
2018-10-11T16:46:19.632Z,100653.21
2018-10-11T16:48:53.604Z,100650.22
2018-10-11T16:51:27.595Z,100651.34
2018-10-11T16:54:01.616Z,100648.34
2018-10-11T16:56:35.646Z,100655.66
2018-10-11T16:59:09.630Z,100660.39
2018-10-11T17:01:43.685Z,100662.77
2018-10-11T17:04:18.014Z,100667.23
2018-10-11T17:06:52.060Z,100666.11
2018-10-11T17:09:25.999Z,100666.00
2018-10-11T17:12:02.495Z,100664.88
2018-10-11T17:14:36.426Z,100667.91
2018-10-11T17:17:10.432Z,100672.44
2018-10-11T17:19:44.431Z,100672.71
2018-10-11T17:22:18.515Z,100671.93
2018-10-11T17:24:52.528Z,100670.05
2018-10-11T17:27:26.560Z,100673.11
2018-10-11T17:30:00.463Z,100675.05
2018-10-11T17:32:34.443Z,100670.66
2018-10-11T17:35:08.453Z,100669.80
2018-10-11T17:37:42.528Z,100669.98
2018-10-11T17:40:16.553Z,100677.36
2018-10-11T17:42:50.576Z,100671.00
2018-10-11T17:45:24.628Z,100676.38
2018-10-11T17:47:58.605Z,100670.38
2018-10-11T17:50:32.797Z,100675.93
2018-10-11T17:53:07.263Z,100670.64
2018-10-11T17:55:41.189Z,100668.45
2018-10-11T17:58:15.148Z,100668.31
2018-10-11T18:00:49.180Z,100662.22
2018-10-11T18:03:23.186Z,100671.14
2018-10-11T18:05:57.130Z,100666.17
2018-10-11T18:08:31.480Z,100679.33
2018-10-11T18:11:05.509Z,100676.52
2018-10-11T18:13:39.604Z,100677.83
2018-10-11T18:16:13.708Z,100670.57
2018-10-11T18:18:47.738Z,100671.37
2018-10-11T18:21:21.778Z,100668.85
2018-10-11T18:23:55.729Z,100661.56
2018-10-11T18:26:29.701Z,100668.44
2018-10-11T18:29:03.888Z,100670.16
2018-10-11T18:31:37.952Z,100671.34
2018-10-11T18:34:11.948Z,100677.92
2018-10-11T18:36:45.874Z,100680.02
2018-10-11T18:39:19.856Z,100677.26
2018-10-11T18:41:53.852Z,100675.54
2018-10-11T18:44:27.975Z,100675.56
2018-10-11T18:47:01.967Z,100678.58
2018-10-11T18:49:36.049Z,100678.35
2018-10-11T18:52:10.048Z,100675.98
2018-10-11T18:54:44.326Z,100681.22
2018-10-11T18:57:18.306Z,100682.88
2018-10-11T18:59:52.634Z,100683.92
2018-10-11T19:02:26.681Z,100680.23
2018-10-11T19:05:00.745Z,100683.80
2018-10-11T19:07:34.711Z,100685.59
2018-10-11T19:10:09.825Z,100682.23
2018-10-11T19:12:43.931Z,100690.12
2018-10-11T19:15:19.870Z,100691.13
2018-10-11T19:17:53.914Z,100682.77
2018-10-11T19:20:28.127Z,100681.59
2018-10-11T19:23:02.036Z,100679.66
2018-10-11T19:25:36.726Z,100681.84
2018-10-11T19:28:10.715Z,100684.27
2018-10-11T19:30:44.763Z,100677.52
2018-10-11T19:33:18.815Z,100680.41
2018-10-11T19:35:52.801Z,100684.05
2018-10-11T19:38:26.884Z,100679.66
2018-10-11T19:41:01.065Z,100683.65
2018-10-11T19:43:35.119Z,100684.75
2018-10-11T19:46:09.810Z,100687.48
2018-10-11T19:48:43.874Z,100691.07
2018-10-11T19:51:17.925Z,100700.72
2018-10-11T19:53:51.950Z,100700.30
2018-10-11T19:56:31.325Z,100696.59
2018-10-11T19:59:05.387Z,100695.86
2018-10-11T20:01:39.361Z,100695.14
2018-10-11T20:04:13.410Z,100686.74
2018-10-11T20:06:47.359Z,100691.13
2018-10-11T20:09:21.328Z,100688.97
2018-10-11T20:11:55.317Z,100691.34
2018-10-11T20:14:29.278Z,100691.84
2018-10-11T20:17:03.387Z,100688.61
2018-10-11T20:19:37.401Z,100689.77
2018-10-11T20:22:12.284Z,100695.47
2018-10-11T20:24:46.309Z,100693.08
2018-10-11T20:27:20.259Z,100698.54
2018-10-11T20:29:54.908Z,100701.11
2018-10-11T20:32:28.988Z,100703.30
2018-10-11T20:35:02.986Z,100708.16
2018-10-11T20:37:37.287Z,100704.89
2018-10-11T20:40:11.509Z,100703.70
2018-10-11T20:42:45.467Z,100702.52
2018-10-11T20:45:19.533Z,100705.71
2018-10-11T20:47:53.525Z,100704.50
2018-10-11T20:50:27.695Z,100701.58
2018-10-11T20:53:01.736Z,100701.29
2018-10-11T20:55:35.833Z,100703.52
2018-10-11T20:58:10.010Z,100707.78
2018-10-11T21:00:44.332Z,100711.28
2018-10-11T21:03:18.350Z,100715.33
2018-10-11T21:05:52.384Z,100714.21
2018-10-11T21:08:26.443Z,100712.64
2018-10-11T21:11:00.481Z,100711.94
2018-10-11T21:13:34.491Z,100716.69
2018-10-11T21:16:08.579Z,100720.53
2018-10-11T21:18:42.558Z,100718.96
2018-10-11T21:21:16.510Z,100719.15
2018-10-11T21:23:50.484Z,100717.09
2018-10-11T21:26:24.478Z,100716.23
2018-10-11T21:28:58.427Z,100720.17
2018-10-11T21:31:32.388Z,100722.80
2018-10-11T21:34:06.590Z,100719.44
2018-10-11T21:36:40.531Z,100722.22
2018-10-11T21:39:14.592Z,100717.75
2018-10-11T21:41:48.725Z,100724.23
2018-10-11T21:44:22.787Z,100718.34
2018-10-11T21:46:56.885Z,100711.63
2018-10-11T21:49:31.278Z,100719.98
2018-10-11T21:52:05.456Z,100708.30
2018-10-11T21:54:39.377Z,100712.23
2018-10-11T21:57:13.350Z,100720.10
2018-10-11T21:59:47.371Z,100725.23
2018-10-11T22:02:21.362Z,100725.20
2018-10-11T22:04:55.321Z,100731.17
2018-10-11T22:07:29.392Z,100730.34
2018-10-11T22:10:03.380Z,100731.70
2018-10-11T22:12:37.315Z,100731.43
2018-10-11T22:15:11.403Z,100726.80
2018-10-11T22:17:45.389Z,100727.34
2018-10-11T22:20:19.454Z,100724.35
2018-10-11T22:22:53.462Z,100723.21
2018-10-11T22:25:28.769Z,100725.52
2018-10-11T22:28:02.779Z,100720.70
2018-10-11T22:30:36.752Z,100716.85
2018-10-11T22:33:10.750Z,100715.57
2018-10-11T22:35:44.727Z,100712.11
2018-10-11T22:38:18.889Z,100718.19
2018-10-11T22:40:52.970Z,100713.15
2018-10-11T22:43:27.003Z,100716.69
2018-10-11T22:46:01.106Z,100723.64
2018-10-11T22:48:35.140Z,100728.91
2018-10-11T22:51:09.192Z,100728.02
2018-10-11T22:53:43.501Z,100732.30
2018-10-11T22:56:21.050Z,100728.84
2018-10-11T22:58:55.136Z,100731.10
2018-10-11T23:01:29.179Z,100732.52
2018-10-11T23:04:03.297Z,100738.72
2018-10-11T23:06:37.235Z,100738.77
2018-10-11T23:09:11.411Z,100743.13
2018-10-11T23:11:45.424Z,100747.42
2018-10-11T23:14:19.561Z,100740.59
2018-10-11T23:16:53.520Z,100738.53
2018-10-11T23:19:27.883Z,100740.28
2018-10-11T23:22:01.828Z,100741.71
2018-10-11T23:24:35.764Z,100744.77
2018-10-11T23:27:09.697Z,100738.05
2018-10-11T23:29:43.655Z,100739.48
2018-10-11T23:32:17.567Z,100743.77
2018-10-11T23:34:51.514Z,100747.62
2018-10-11T23:37:25.530Z,100746.02
2018-10-11T23:39:59.913Z,100745.23
2018-10-11T23:42:33.864Z,100748.64
2018-10-11T23:45:09.055Z,100744.35
2018-10-11T23:47:43.585Z,100746.17
2018-10-11T23:50:17.699Z,100751.91
2018-10-11T23:52:51.655Z,100754.93
2018-10-11T23:55:25.700Z,100755.05
2018-10-11T23:57:59.962Z,100758.00
